Pagina principale
METAR-TAF:

METAR-TAF

Aeroporti :

Memmingen, Germania

latitudine: 47-59-33N, longitudine: 10-14-37E, altezza: 633 m

Osservazione

Il bollettino è stato emesso 15 minuti fa, alle 12:50 UTC
Vento 3 kt da ovest
Temperature 3°C
Umidità 75%
Pressione 1016 hPa
Visibilità 10 km o più
Cielo coperto ad un'altezza di 6000 ft

METAR: EDJA 061250Z 27003KT 9999 OVC060 03/M01 Q1016

Ora: 14:05 (13:05 UTC)

Previsione

Il bollettino è stato emesso 2 ore e 5 minuti fa, alle 11:00 UTC
Previsione valida dal 06 alle 12 UTC al 06 alle 21 UTC
Vento 3 kt da ovest/sud-ovest
Visibilità 10 km o più
Nuvoloso ad un'altezza di 5000 ft
Temporaneamente
dal 06 alle 17 UTC al 06 alle 21 UTC
Visibilità: 4000 m
Nubi sparse ad un'altezza di 800 ft
Nuvoloso ad un'altezza di 1200 ft
neve debole, pioggia

TAF: EDJA 061100Z 0612/0621 25003KT 9999 BKN050 TEMPO 0617/0621 4000 -SNRA SCT008 BKN012

Osservazioni e previsioni meteorologiche di più di 4000 aeroporti (messaggi METAR e TAF).

Le stazioni disponibili sono rappresentate dai dischi gialli e rossi sulla carta.

Puntare il mouse per vedere il nome della stazione.

Clicca sopra per visualizzare le osservazioni e previsioni meteorologiche.

Per cambiare la mappa : fare clic sui pulsanti verdi con una croce nera per ingrandire, il pulsante verde con un trattino per diminuire, o sulla freccia verde per le mappe adiacenti.


METAR-TAF: